sensor_id;sensor_type;location;lat;lon;timestamp;temperature;humidity
43185;DHT22;28803;52.308;19.096;2023-08-06T00:01:23;16.60;99.90
43185;DHT22;28803;52.308;19.096;2023-08-06T00:03:52;16.60;99.90
43185;DHT22;28803;52.308;19.096;2023-08-06T00:06:19;16.60;99.90
43185;DHT22;28803;52.308;19.096;2023-08-06T00:08:47;16.60;99.90
43185;DHT22;28803;52.308;19.096;2023-08-06T00:11:14;16.60;99.90
43185;DHT22;28803;52.308;19.096;2023-08-06T00:13:42;16.60;99.90
43185;DHT22;28803;52.308;19.096;2023-08-06T00:16:13;16.60;99.90
43185;DHT22;28803;52.308;19.096;2023-08-06T00:21:08;16.60;99.90
43185;DHT22;28803;52.308;19.096;2023-08-06T00:23:36;16.60;99.90
43185;DHT22;28803;52.308;19.096;2023-08-06T00:26:03;16.60;99.90
43185;DHT22;28803;52.308;19.096;2023-08-06T00:28:31;16.60;99.90
43185;DHT22;28803;52.308;19.096;2023-08-06T00:30:58;16.60;99.90
43185;DHT22;28803;52.308;19.096;2023-08-06T00:33:26;16.60;99.90
43185;DHT22;28803;52.308;19.096;2023-08-06T00:35:53;16.60;99.90
43185;DHT22;28803;52.308;19.096;2023-08-06T00:38:20;16.60;99.90
43185;DHT22;28803;52.308;19.096;2023-08-06T00:40:48;16.60;99.90
43185;DHT22;28803;52.308;19.096;2023-08-06T00:43:15;16.60;99.90
43185;DHT22;28803;52.308;19.096;2023-08-06T00:45:43;16.60;99.90
43185;DHT22;28803;52.308;19.096;2023-08-06T00:48:11;16.60;99.90
43185;DHT22;28803;52.308;19.096;2023-08-06T00:50:38;16.60;99.90
43185;DHT22;28803;52.308;19.096;2023-08-06T00:53:40;16.50;99.90
43185;DHT22;28803;52.308;19.096;2023-08-06T00:56:10;16.60;99.90
43185;DHT22;28803;52.308;19.096;2023-08-06T00:58:38;16.60;99.90
43185;DHT22;28803;52.308;19.096;2023-08-06T01:01:06;16.50;99.90
43185;DHT22;28803;52.308;19.096;2023-08-06T01:03:33;16.60;99.90
43185;DHT22;28803;52.308;19.096;2023-08-06T01:06:01;16.60;99.90
43185;DHT22;28803;52.308;19.096;2023-08-06T01:15:01;16.50;99.90
43185;DHT22;28803;52.308;19.096;2023-08-06T01:17:31;16.60;99.90
43185;DHT22;28803;52.308;19.096;2023-08-06T01:20:00;16.60;99.90
43185;DHT22;28803;52.308;19.096;2023-08-06T01:22:27;16.60;99.90
43185;DHT22;28803;52.308;19.096;2023-08-06T01:24:55;16.60;99.90
43185;DHT22;28803;52.308;19.096;2023-08-06T01:27:36;16.60;99.90
43185;DHT22;28803;52.308;19.096;2023-08-06T01:30:12;16.60;99.90
43185;DHT22;28803;52.308;19.096;2023-08-06T01:32:44;16.60;99.90
43185;DHT22;28803;52.308;19.096;2023-08-06T01:35:15;16.60;99.90
43185;DHT22;28803;52.308;19.096;2023-08-06T01:37:43;16.60;99.90
43185;DHT22;28803;52.308;19.096;2023-08-06T01:40:12;16.60;99.90
43185;DHT22;28803;52.308;19.096;2023-08-06T01:42:39;16.60;99.90
43185;DHT22;28803;52.308;19.096;2023-08-06T01:45:07;16.60;99.90
43185;DHT22;28803;52.308;19.096;2023-08-06T01:47:35;16.70;99.90
43185;DHT22;28803;52.308;19.096;2023-08-06T01:50:03;16.70;99.90
43185;DHT22;28803;52.308;19.096;2023-08-06T01:52:30;16.60;99.90
43185;DHT22;28803;52.308;19.096;2023-08-06T01:54:58;16.60;99.90
43185;DHT22;28803;52.308;19.096;2023-08-06T01:57:25;16.60;99.90
43185;DHT22;28803;52.308;19.096;2023-08-06T01:59:52;16.60;99.90
43185;DHT22;28803;52.308;19.096;2023-08-06T02:02:19;16.60;99.90
43185;DHT22;28803;52.308;19.096;2023-08-06T02:04:47;16.70;99.90
43185;DHT22;28803;52.308;19.096;2023-08-06T02:07:14;16.60;99.90
43185;DHT22;28803;52.308;19.096;2023-08-06T02:09:42;16.70;99.90
43185;DHT22;28803;52.308;19.096;2023-08-06T02:12:09;16.70;99.90
43185;DHT22;28803;52.308;19.096;2023-08-06T02:14:36;16.70;99.90
43185;DHT22;28803;52.308;19.096;2023-08-06T02:17:04;16.70;99.90
43185;DHT22;28803;52.308;19.096;2023-08-06T02:19:31;16.70;99.90
43185;DHT22;28803;52.308;19.096;2023-08-06T02:21:58;16.60;99.90
43185;DHT22;28803;52.308;19.096;2023-08-06T02:24:25;16.60;99.90
43185;DHT22;28803;52.308;19.096;2023-08-06T02:26:52;16.60;99.90
43185;DHT22;28803;52.308;19.096;2023-08-06T02:29:23;16.70;99.90
43185;DHT22;28803;52.308;19.096;2023-08-06T02:31:50;16.60;99.90
43185;DHT22;28803;52.308;19.096;2023-08-06T02:34:19;16.70;99.90
43185;DHT22;28803;52.308;19.096;2023-08-06T02:36:46;16.70;99.90
43185;DHT22;28803;52.308;19.096;2023-08-06T02:39:13;16.70;99.90
43185;DHT22;28803;52.308;19.096;2023-08-06T02:41:40;16.70;99.90
43185;DHT22;28803;52.308;19.096;2023-08-06T02:44:08;16.80;99.90
43185;DHT22;28803;52.308;19.096;2023-08-06T02:46:35;16.70;99.90
43185;DHT22;28803;52.308;19.096;2023-08-06T02:49:02;16.70;99.90
43185;DHT22;28803;52.308;19.096;2023-08-06T02:51:29;16.70;99.90
43185;DHT22;28803;52.308;19.096;2023-08-06T02:53:57;16.60;99.90
43185;DHT22;28803;52.308;19.096;2023-08-06T02:56:24;16.60;99.90
43185;DHT22;28803;52.308;19.096;2023-08-06T02:58:51;16.60;99.90
43185;DHT22;28803;52.308;19.096;2023-08-06T03:01:18;16.50;99.90
43185;DHT22;28803;52.308;19.096;2023-08-06T03:03:45;16.50;99.90
43185;DHT22;28803;52.308;19.096;2023-08-06T03:06:13;16.50;99.90
43185;DHT22;28803;52.308;19.096;2023-08-06T03:08:40;16.50;99.90
43185;DHT22;28803;52.308;19.096;2023-08-06T03:11:07;16.50;99.90
43185;DHT22;28803;52.308;19.096;2023-08-06T03:13:35;16.50;99.90
43185;DHT22;28803;52.308;19.096;2023-08-06T03:16:02;16.50;99.90
43185;DHT22;28803;52.308;19.096;2023-08-06T03:18:30;16.50;99.90
43185;DHT22;28803;52.308;19.096;2023-08-06T03:20:57;16.50;99.90
43185;DHT22;28803;52.308;19.096;2023-08-06T03:23:24;16.50;99.90
43185;DHT22;28803;52.308;19.096;2023-08-06T03:25:51;16.50;99.90
43185;DHT22;28803;52.308;19.096;2023-08-06T03:28:19;16.50;99.90
43185;DHT22;28803;52.308;19.096;2023-08-06T03:30:46;16.50;99.90
43185;DHT22;28803;52.308;19.096;2023-08-06T03:33:14;16.60;99.90
43185;DHT22;28803;52.308;19.096;2023-08-06T03:35:41;16.50;99.90
43185;DHT22;28803;52.308;19.096;2023-08-06T03:38:08;16.50;99.90
43185;DHT22;28803;52.308;19.096;2023-08-06T03:40:35;16.60;99.90
43185;DHT22;28803;52.308;19.096;2023-08-06T03:43:03;16.60;99.90
43185;DHT22;28803;52.308;19.096;2023-08-06T03:45:30;16.60;99.90
43185;DHT22;28803;52.308;19.096;2023-08-06T03:47:57;16.60;99.90
43185;DHT22;28803;52.308;19.096;2023-08-06T03:50:25;16.60;99.90
43185;DHT22;28803;52.308;19.096;2023-08-06T03:52:52;16.60;99.90
43185;DHT22;28803;52.308;19.096;2023-08-06T03:55:19;16.70;99.90
43185;DHT22;28803;52.308;19.096;2023-08-06T03:57:47;16.70;99.90
43185;DHT22;28803;52.308;19.096;2023-08-06T04:00:14;16.70;99.90
43185;DHT22;28803;52.308;19.096;2023-08-06T04:02:42;16.70;99.90
43185;DHT22;28803;52.308;19.096;2023-08-06T04:05:09;16.80;99.90
43185;DHT22;28803;52.308;19.096;2023-08-06T04:07:37;16.80;99.90
43185;DHT22;28803;52.308;19.096;2023-08-06T04:10:05;16.80;99.90
43185;DHT22;28803;52.308;19.096;2023-08-06T04:12:32;16.80;99.90
43185;DHT22;28803;52.308;19.096;2023-08-06T04:15:03;16.90;99.90
43185;DHT22;28803;52.308;19.096;2023-08-06T04:17:31;16.80;99.90
43185;DHT22;28803;52.308;19.096;2023-08-06T04:19:58;16.90;99.90
43185;DHT22;28803;52.308;19.096;2023-08-06T04:22:26;16.90;99.90
43185;DHT22;28803;52.308;19.096;2023-08-06T04:24:53;17.00;99.90
43185;DHT22;28803;52.308;19.096;2023-08-06T04:27:21;17.00;99.90
43185;DHT22;28803;52.308;19.096;2023-08-06T04:29:48;17.00;99.90
43185;DHT22;28803;52.308;19.096;2023-08-06T04:32:16;17.00;99.90
43185;DHT22;28803;52.308;19.096;2023-08-06T04:34:44;17.00;99.90
43185;DHT22;28803;52.308;19.096;2023-08-06T04:37:12;17.00;99.90
43185;DHT22;28803;52.308;19.096;2023-08-06T04:39:39;17.10;99.90
43185;DHT22;28803;52.308;19.096;2023-08-06T04:42:06;17.20;99.90
43185;DHT22;28803;52.308;19.096;2023-08-06T04:44:34;17.20;99.90
43185;DHT22;28803;52.308;19.096;2023-08-06T04:47:01;17.20;99.90
43185;DHT22;28803;52.308;19.096;2023-08-06T04:49:28;17.20;99.90
43185;DHT22;28803;52.308;19.096;2023-08-06T04:51:55;17.20;99.90
43185;DHT22;28803;52.308;19.096;2023-08-06T04:54:22;17.30;99.90
43185;DHT22;28803;52.308;19.096;2023-08-06T04:56:50;17.30;99.90
43185;DHT22;28803;52.308;19.096;2023-08-06T04:59:17;17.30;99.90
43185;DHT22;28803;52.308;19.096;2023-08-06T05:01:44;17.30;99.90
43185;DHT22;28803;52.308;19.096;2023-08-06T05:04:12;17.40;99.90
43185;DHT22;28803;52.308;19.096;2023-08-06T05:06:39;17.40;99.90
43185;DHT22;28803;52.308;19.096;2023-08-06T05:09:07;17.40;99.90
43185;DHT22;28803;52.308;19.096;2023-08-06T05:11:34;17.40;99.90
43185;DHT22;28803;52.308;19.096;2023-08-06T05:14:04;17.50;99.90
43185;DHT22;28803;52.308;19.096;2023-08-06T05:16:34;17.50;99.90
43185;DHT22;28803;52.308;19.096;2023-08-06T05:19:02;17.50;99.90
43185;DHT22;28803;52.308;19.096;2023-08-06T05:21:33;17.60;99.90
43185;DHT22;28803;52.308;19.096;2023-08-06T05:24:20;17.60;99.90
43185;DHT22;28803;52.308;19.096;2023-08-06T05:26:52;17.60;99.90
43185;DHT22;28803;52.308;19.096;2023-08-06T05:29:20;17.60;99.90
43185;DHT22;28803;52.308;19.096;2023-08-06T05:31:48;17.70;99.90
43185;DHT22;28803;52.308;19.096;2023-08-06T05:34:18;17.70;99.90
43185;DHT22;28803;52.308;19.096;2023-08-06T05:36:45;17.70;99.90
43185;DHT22;28803;52.308;19.096;2023-08-06T05:39:12;17.90;99.90
43185;DHT22;28803;52.308;19.096;2023-08-06T05:41:41;17.90;99.90
43185;DHT22;28803;52.308;19.096;2023-08-06T05:44:11;17.90;99.90
43185;DHT22;28803;52.308;19.096;2023-08-06T05:46:42;18.00;99.90
43185;DHT22;28803;52.308;19.096;2023-08-06T05:49:09;18.00;99.90
43185;DHT22;28803;52.308;19.096;2023-08-06T05:51:37;18.00;99.90
43185;DHT22;28803;52.308;19.096;2023-08-06T05:54:05;18.20;99.90
43185;DHT22;28803;52.308;19.096;2023-08-06T05:56:32;18.20;99.90
43185;DHT22;28803;52.308;19.096;2023-08-06T05:58:59;18.20;99.90
43185;DHT22;28803;52.308;19.096;2023-08-06T06:01:27;18.20;99.90
43185;DHT22;28803;52.308;19.096;2023-08-06T06:03:54;18.20;99.90
43185;DHT22;28803;52.308;19.096;2023-08-06T06:06:21;18.20;99.90
43185;DHT22;28803;52.308;19.096;2023-08-06T06:08:49;18.20;99.90
43185;DHT22;28803;52.308;19.096;2023-08-06T06:11:16;18.30;99.90
43185;DHT22;28803;52.308;19.096;2023-08-06T06:13:43;18.30;99.90
43185;DHT22;28803;52.308;19.096;2023-08-06T06:16:10;18.30;99.90
43185;DHT22;28803;52.308;19.096;2023-08-06T06:18:38;18.30;99.90
43185;DHT22;28803;52.308;19.096;2023-08-06T06:21:05;18.30;99.90
43185;DHT22;28803;52.308;19.096;2023-08-06T06:23:32;18.40;99.90
43185;DHT22;28803;52.308;19.096;2023-08-06T06:25:59;18.50;99.90
43185;DHT22;28803;52.308;19.096;2023-08-06T06:28:27;18.50;99.90
43185;DHT22;28803;52.308;19.096;2023-08-06T06:31:00;18.40;99.90
43185;DHT22;28803;52.308;19.096;2023-08-06T06:33:28;18.50;99.90
43185;DHT22;28803;52.308;19.096;2023-08-06T06:35:55;18.40;99.90
43185;DHT22;28803;52.308;19.096;2023-08-06T06:38:22;18.50;99.90
43185;DHT22;28803;52.308;19.096;2023-08-06T06:40:56;18.50;99.90
43185;DHT22;28803;52.308;19.096;2023-08-06T06:43:24;18.50;99.90
43185;DHT22;28803;52.308;19.096;2023-08-06T06:45:58;18.50;99.90
43185;DHT22;28803;52.308;19.096;2023-08-06T06:48:28;18.50;99.90
43185;DHT22;28803;52.308;19.096;2023-08-06T06:50:56;18.50;99.90
43185;DHT22;28803;52.308;19.096;2023-08-06T06:53:23;18.40;99.90
43185;DHT22;28803;52.308;19.096;2023-08-06T06:55:55;18.50;99.90
43185;DHT22;28803;52.308;19.096;2023-08-06T06:58:23;18.50;99.90
43185;DHT22;28803;52.308;19.096;2023-08-06T07:00:50;18.50;99.90
43185;DHT22;28803;52.308;19.096;2023-08-06T07:03:19;18.50;99.90
43185;DHT22;28803;52.308;19.096;2023-08-06T07:05:46;18.70;99.90
43185;DHT22;28803;52.308;19.096;2023-08-06T07:08:14;18.60;99.90
43185;DHT22;28803;52.308;19.096;2023-08-06T07:10:42;18.70;99.90
43185;DHT22;28803;52.308;19.096;2023-08-06T07:13:10;18.70;99.90
43185;DHT22;28803;52.308;19.096;2023-08-06T07:15:37;18.80;99.90
43185;DHT22;28803;52.308;19.096;2023-08-06T07:18:04;18.80;99.90
43185;DHT22;28803;52.308;19.096;2023-08-06T07:20:31;18.90;99.90
43185;DHT22;28803;52.308;19.096;2023-08-06T07:23:00;18.90;99.90
43185;DHT22;28803;52.308;19.096;2023-08-06T07:25:27;18.90;99.90
43185;DHT22;28803;52.308;19.096;2023-08-06T07:27:55;18.90;99.90
43185;DHT22;28803;52.308;19.096;2023-08-06T07:30:23;18.90;99.90
43185;DHT22;28803;52.308;19.096;2023-08-06T07:32:51;18.90;99.90
43185;DHT22;28803;52.308;19.096;2023-08-06T07:35:19;18.80;99.90
43185;DHT22;28803;52.308;19.096;2023-08-06T07:37:47;18.80;99.90
43185;DHT22;28803;52.308;19.096;2023-08-06T07:40:14;19.10;99.90
43185;DHT22;28803;52.308;19.096;2023-08-06T07:42:41;19.10;99.90
43185;DHT22;28803;52.308;19.096;2023-08-06T07:45:09;19.20;99.90
43185;DHT22;28803;52.308;19.096;2023-08-06T07:47:37;19.30;99.90
43185;DHT22;28803;52.308;19.096;2023-08-06T07:50:04;19.30;99.90
43185;DHT22;28803;52.308;19.096;2023-08-06T07:52:32;19.40;99.90
43185;DHT22;28803;52.308;19.096;2023-08-06T07:54:59;19.40;99.90
43185;DHT22;28803;52.308;19.096;2023-08-06T07:57:28;19.50;99.90
43185;DHT22;28803;52.308;19.096;2023-08-06T07:59:56;19.60;99.90
43185;DHT22;28803;52.308;19.096;2023-08-06T08:02:23;19.60;99.90
43185;DHT22;28803;52.308;19.096;2023-08-06T08:04:50;19.50;99.90
43185;DHT22;28803;52.308;19.096;2023-08-06T08:07:18;19.50;99.90
43185;DHT22;28803;52.308;19.096;2023-08-06T08:09:45;19.60;99.90
43185;DHT22;28803;52.308;19.096;2023-08-06T08:12:15;19.70;99.90
43185;DHT22;28803;52.308;19.096;2023-08-06T08:14:42;19.70;99.90
43185;DHT22;28803;52.308;19.096;2023-08-06T08:17:12;19.80;99.90
43185;DHT22;28803;52.308;19.096;2023-08-06T08:19:40;19.90;99.90
43185;DHT22;28803;52.308;19.096;2023-08-06T08:22:08;19.90;99.90
43185;DHT22;28803;52.308;19.096;2023-08-06T08:24:35;20.00;99.90
43185;DHT22;28803;52.308;19.096;2023-08-06T08:27:02;20.00;99.90
43185;DHT22;28803;52.308;19.096;2023-08-06T08:29:30;19.90;99.90
43185;DHT22;28803;52.308;19.096;2023-08-06T08:31:57;19.80;99.90
43185;DHT22;28803;52.308;19.096;2023-08-06T08:34:25;19.80;99.90
43185;DHT22;28803;52.308;19.096;2023-08-06T08:36:52;19.80;99.90
43185;DHT22;28803;52.308;19.096;2023-08-06T08:39:19;19.80;99.90
43185;DHT22;28803;52.308;19.096;2023-08-06T08:41:46;19.80;99.90
43185;DHT22;28803;52.308;19.096;2023-08-06T08:44:14;19.80;99.90
43185;DHT22;28803;52.308;19.096;2023-08-06T08:46:44;19.90;99.90
43185;DHT22;28803;52.308;19.096;2023-08-06T08:49:11;19.80;99.90
43185;DHT22;28803;52.308;19.096;2023-08-06T08:51:39;19.80;99.90
43185;DHT22;28803;52.308;19.096;2023-08-06T08:54:07;20.10;99.90
43185;DHT22;28803;52.308;19.096;2023-08-06T08:56:36;20.10;99.90
43185;DHT22;28803;52.308;19.096;2023-08-06T08:59:03;20.10;99.90
43185;DHT22;28803;52.308;19.096;2023-08-06T09:01:30;20.10;99.90
43185;DHT22;28803;52.308;19.096;2023-08-06T09:04:00;20.10;99.90
43185;DHT22;28803;52.308;19.096;2023-08-06T09:06:29;20.20;99.90
43185;DHT22;28803;52.308;19.096;2023-08-06T09:09:04;20.40;99.90
43185;DHT22;28803;52.308;19.096;2023-08-06T09:11:39;20.40;99.90
43185;DHT22;28803;52.308;19.096;2023-08-06T09:14:09;20.40;99.90
43185;DHT22;28803;52.308;19.096;2023-08-06T09:16:37;20.40;99.90
43185;DHT22;28803;52.308;19.096;2023-08-06T09:19:12;20.30;99.90
43185;DHT22;28803;52.308;19.096;2023-08-06T09:21:40;20.30;99.90
43185;DHT22;28803;52.308;19.096;2023-08-06T09:24:13;20.30;99.90
43185;DHT22;28803;52.308;19.096;2023-08-06T09:26:43;20.30;99.90
43185;DHT22;28803;52.308;19.096;2023-08-06T09:29:11;20.20;99.90
43185;DHT22;28803;52.308;19.096;2023-08-06T09:31:49;20.20;99.90
43185;DHT22;28803;52.308;19.096;2023-08-06T09:34:21;20.20;99.90
43185;DHT22;28803;52.308;19.096;2023-08-06T09:36:53;20.20;99.90
43185;DHT22;28803;52.308;19.096;2023-08-06T09:39:24;20.20;99.90
43185;DHT22;28803;52.308;19.096;2023-08-06T09:41:57;20.10;99.90
43185;DHT22;28803;52.308;19.096;2023-08-06T09:44:26;20.00;99.90
43185;DHT22;28803;52.308;19.096;2023-08-06T09:46:56;20.10;99.90
43185;DHT22;28803;52.308;19.096;2023-08-06T09:49:29;20.10;99.90
43185;DHT22;28803;52.308;19.096;2023-08-06T09:52:11;20.10;99.90
43185;DHT22;28803;52.308;19.096;2023-08-06T09:54:39;20.10;99.90
43185;DHT22;28803;52.308;19.096;2023-08-06T09:57:08;20.00;99.90
43185;DHT22;28803;52.308;19.096;2023-08-06T09:59:36;20.00;99.90
43185;DHT22;28803;52.308;19.096;2023-08-06T10:02:12;19.90;99.90
43185;DHT22;28803;52.308;19.096;2023-08-06T10:04:39;19.90;99.90
43185;DHT22;28803;52.308;19.096;2023-08-06T10:07:08;20.00;99.90
43185;DHT22;28803;52.308;19.096;2023-08-06T10:09:35;20.00;99.90
43185;DHT22;28803;52.308;19.096;2023-08-06T10:12:03;20.20;99.90
43185;DHT22;28803;52.308;19.096;2023-08-06T10:14:35;20.20;99.90
43185;DHT22;28803;52.308;19.096;2023-08-06T10:17:04;20.20;99.90
43185;DHT22;28803;52.308;19.096;2023-08-06T10:19:32;20.30;99.90
43185;DHT22;28803;52.308;19.096;2023-08-06T10:22:14;20.40;99.90
43185;DHT22;28803;52.308;19.096;2023-08-06T10:24:46;20.70;99.90
43185;DHT22;28803;52.308;19.096;2023-08-06T10:27:19;20.90;99.90
43185;DHT22;28803;52.308;19.096;2023-08-06T10:29:46;21.10;99.90
43185;DHT22;28803;52.308;19.096;2023-08-06T10:32:13;21.10;99.90
43185;DHT22;28803;52.308;19.096;2023-08-06T10:34:57;21.10;99.90
43185;DHT22;28803;52.308;19.096;2023-08-06T10:37:37;21.00;99.90
43185;DHT22;28803;52.308;19.096;2023-08-06T10:40:06;20.90;99.90
43185;DHT22;28803;52.308;19.096;2023-08-06T10:42:35;20.90;99.90
43185;DHT22;28803;52.308;19.096;2023-08-06T10:45:16;21.20;99.90
43185;DHT22;28803;52.308;19.096;2023-08-06T10:47:46;21.20;99.90
43185;DHT22;28803;52.308;19.096;2023-08-06T10:50:16;21.50;99.90
43185;DHT22;28803;52.308;19.096;2023-08-06T10:52:45;21.60;99.90
43185;DHT22;28803;52.308;19.096;2023-08-06T10:55:14;21.70;99.90
43185;DHT22;28803;52.308;19.096;2023-08-06T10:57:49;21.60;99.90
43185;DHT22;28803;52.308;19.096;2023-08-06T11:00:16;21.70;99.90
43185;DHT22;28803;52.308;19.096;2023-08-06T11:02:44;21.60;99.90
43185;DHT22;28803;52.308;19.096;2023-08-06T11:05:14;21.80;99.90
43185;DHT22;28803;52.308;19.096;2023-08-06T11:07:41;21.90;99.90
43185;DHT22;28803;52.308;19.096;2023-08-06T11:10:13;21.60;99.90
43185;DHT22;28803;52.308;19.096;2023-08-06T11:12:40;21.60;99.90
43185;DHT22;28803;52.308;19.096;2023-08-06T11:15:08;21.50;99.90
43185;DHT22;28803;52.308;19.096;2023-08-06T11:17:36;21.40;99.90
43185;DHT22;28803;52.308;19.096;2023-08-06T11:20:04;21.20;99.90
43185;DHT22;28803;52.308;19.096;2023-08-06T11:22:32;21.10;99.90
43185;DHT22;28803;52.308;19.096;2023-08-06T11:24:59;20.90;99.90
43185;DHT22;28803;52.308;19.096;2023-08-06T11:27:28;21.00;99.90
43185;DHT22;28803;52.308;19.096;2023-08-06T11:29:55;21.00;99.90
43185;DHT22;28803;52.308;19.096;2023-08-06T11:32:23;20.90;99.90
43185;DHT22;28803;52.308;19.096;2023-08-06T11:34:52;21.00;99.90
43185;DHT22;28803;52.308;19.096;2023-08-06T11:37:21;21.40;99.90
43185;DHT22;28803;52.308;19.096;2023-08-06T11:39:51;22.40;99.90
43185;DHT22;28803;52.308;19.096;2023-08-06T11:42:19;22.90;99.90
43185;DHT22;28803;52.308;19.096;2023-08-06T11:44:46;23.10;99.90
43185;DHT22;28803;52.308;19.096;2023-08-06T11:47:16;23.20;99.90
43185;DHT22;28803;52.308;19.096;2023-08-06T11:49:48;23.20;99.90
43185;DHT22;28803;52.308;19.096;2023-08-06T11:52:18;23.20;99.90
43185;DHT22;28803;52.308;19.096;2023-08-06T11:55:02;23.20;99.90
43185;DHT22;28803;52.308;19.096;2023-08-06T11:57:30;23.60;99.90
43185;DHT22;28803;52.308;19.096;2023-08-06T12:00:12;24.70;99.90
43185;DHT22;28803;52.308;19.096;2023-08-06T12:02:42;24.60;99.90
43185;DHT22;28803;52.308;19.096;2023-08-06T12:07:42;24.80;60.80
43185;DHT22;28803;52.308;19.096;2023-08-06T12:10:11;24.50;49.60
43185;DHT22;28803;52.308;19.096;2023-08-06T12:12:39;24.20;62.90
43185;DHT22;28803;52.308;19.096;2023-08-06T12:15:07;24.10;92.40
43185;DHT22;28803;52.308;19.096;2023-08-06T12:17:35;24.20;98.00
43185;DHT22;28803;52.308;19.096;2023-08-06T12:20:04;24.30;81.10
43185;DHT22;28803;52.308;19.096;2023-08-06T12:22:33;24.20;76.20
43185;DHT22;28803;52.308;19.096;2023-08-06T12:25:07;24.20;91.40
43185;DHT22;28803;52.308;19.096;2023-08-06T12:27:35;24.40;75.40
43185;DHT22;28803;52.308;19.096;2023-08-06T12:30:04;24.20;60.50
43185;DHT22;28803;52.308;19.096;2023-08-06T12:32:32;24.00;67.70
43185;DHT22;28803;52.308;19.096;2023-08-06T12:35:01;23.90;70.50
43185;DHT22;28803;52.308;19.096;2023-08-06T12:37:29;23.60;90.70
43185;DHT22;28803;52.308;19.096;2023-08-06T12:39:56;23.60;91.20
43185;DHT22;28803;52.308;19.096;2023-08-06T12:42:23;23.50;95.50
43185;DHT22;28803;52.308;19.096;2023-08-06T12:44:52;23.40;97.70
43185;DHT22;28803;52.308;19.096;2023-08-06T12:47:19;23.30;98.50
43185;DHT22;28803;52.308;19.096;2023-08-06T12:49:47;23.00;90.00
43185;DHT22;28803;52.308;19.096;2023-08-06T12:52:14;22.90;84.60
43185;DHT22;28803;52.308;19.096;2023-08-06T12:54:42;22.50;66.10
43185;DHT22;28803;52.308;19.096;2023-08-06T12:57:09;22.10;67.50
43185;DHT22;28803;52.308;19.096;2023-08-06T12:59:37;21.10;83.70
43185;DHT22;28803;52.308;19.096;2023-08-06T13:02:04;21.10;85.10
43185;DHT22;28803;52.308;19.096;2023-08-06T13:04:32;20.80;93.10
43185;DHT22;28803;52.308;19.096;2023-08-06T13:07:01;20.40;91.40
43185;DHT22;28803;52.308;19.096;2023-08-06T13:09:28;20.20;93.10
43185;DHT22;28803;52.308;19.096;2023-08-06T13:11:59;20.20;94.40
43185;DHT22;28803;52.308;19.096;2023-08-06T13:14:27;20.30;94.70
43185;DHT22;28803;52.308;19.096;2023-08-06T13:16:55;20.70;83.80
43185;DHT22;28803;52.308;19.096;2023-08-06T13:19:23;21.20;18.30
43185;DHT22;28803;52.308;19.096;2023-08-06T13:24:18;21.60;7.30
43185;DHT22;28803;52.308;19.096;2023-08-06T13:26:46;22.30;1.00
43185;DHT22;28803;52.308;19.096;2023-08-06T13:29:13;22.30;1.00
43185;DHT22;28803;52.308;19.096;2023-08-06T13:31:40;22.20;1.00
43185;DHT22;28803;52.308;19.096;2023-08-06T13:34:08;22.20;1.00
43185;DHT22;28803;52.308;19.096;2023-08-06T13:36:35;22.10;1.00
43185;DHT22;28803;52.308;19.096;2023-08-06T13:39:03;22.10;1.00
43185;DHT22;28803;52.308;19.096;2023-08-06T13:41:32;22.00;1.00
43185;DHT22;28803;52.308;19.096;2023-08-06T13:43:59;22.00;1.00
43185;DHT22;28803;52.308;19.096;2023-08-06T13:46:27;22.10;1.00
43185;DHT22;28803;52.308;19.096;2023-08-06T13:48:55;22.40;1.00
43185;DHT22;28803;52.308;19.096;2023-08-06T13:51:22;23.20;1.00
43185;DHT22;28803;52.308;19.096;2023-08-06T13:53:49;23.30;1.00
43185;DHT22;28803;52.308;19.096;2023-08-06T13:56:19;23.30;1.00
43185;DHT22;28803;52.308;19.096;2023-08-06T13:58:46;23.20;1.00
43185;DHT22;28803;52.308;19.096;2023-08-06T14:01:17;23.10;1.00
43185;DHT22;28803;52.308;19.096;2023-08-06T14:03:46;22.90;1.00
43185;DHT22;28803;52.308;19.096;2023-08-06T14:06:13;22.90;1.00
43185;DHT22;28803;52.308;19.096;2023-08-06T14:08:40;22.90;1.00
43185;DHT22;28803;52.308;19.096;2023-08-06T14:11:07;23.10;1.00
43185;DHT22;28803;52.308;19.096;2023-08-06T14:13:35;23.10;1.00
43185;DHT22;28803;52.308;19.096;2023-08-06T14:16:02;22.70;1.00
43185;DHT22;28803;52.308;19.096;2023-08-06T14:18:30;22.60;1.00
43185;DHT22;28803;52.308;19.096;2023-08-06T14:20:57;22.00;1.00
43185;DHT22;28803;52.308;19.096;2023-08-06T14:23:25;22.00;1.00
43185;DHT22;28803;52.308;19.096;2023-08-06T14:25:52;21.90;1.00
43185;DHT22;28803;52.308;19.096;2023-08-06T14:28:20;21.70;1.00
43185;DHT22;28803;52.308;19.096;2023-08-06T14:30:47;21.60;1.00
43185;DHT22;28803;52.308;19.096;2023-08-06T14:33:14;21.50;1.00
43185;DHT22;28803;52.308;19.096;2023-08-06T14:35:53;21.30;1.00
43185;DHT22;28803;52.308;19.096;2023-08-06T14:38:21;21.00;1.00
43185;DHT22;28803;52.308;19.096;2023-08-06T14:40:48;20.40;1.00
43185;DHT22;28803;52.308;19.096;2023-08-06T14:43:15;20.20;1.00
43185;DHT22;28803;52.308;19.096;2023-08-06T14:45:44;20.00;1.00
43185;DHT22;28803;52.308;19.096;2023-08-06T14:48:11;19.80;8.70
43185;DHT22;28803;52.308;19.096;2023-08-06T14:50:39;19.50;26.40
43185;DHT22;28803;52.308;19.096;2023-08-06T14:53:07;19.40;29.70
43185;DHT22;28803;52.308;19.096;2023-08-06T14:55:35;19.20;54.00
43185;DHT22;28803;52.308;19.096;2023-08-06T14:58:03;19.20;58.60
43185;DHT22;28803;52.308;19.096;2023-08-06T15:00:30;19.10;62.50
43185;DHT22;28803;52.308;19.096;2023-08-06T15:02:58;18.90;65.10
43185;DHT22;28803;52.308;19.096;2023-08-06T15:05:25;18.90;69.30
43185;DHT22;28803;52.308;19.096;2023-08-06T15:07:52;18.80;78.70
43185;DHT22;28803;52.308;19.096;2023-08-06T15:10:20;18.50;95.60
43185;DHT22;28803;52.308;19.096;2023-08-06T15:12:50;18.40;99.50
43185;DHT22;28803;52.308;19.096;2023-08-06T15:15:17;18.30;99.90
43185;DHT22;28803;52.308;19.096;2023-08-06T15:17:45;18.30;99.90
43185;DHT22;28803;52.308;19.096;2023-08-06T15:20:13;18.40;99.90
43185;DHT22;28803;52.308;19.096;2023-08-06T15:22:40;18.60;99.90
43185;DHT22;28803;52.308;19.096;2023-08-06T15:25:07;18.60;99.90
43185;DHT22;28803;52.308;19.096;2023-08-06T15:27:35;18.70;99.90
43185;DHT22;28803;52.308;19.096;2023-08-06T15:30:03;18.60;96.50
43185;DHT22;28803;52.308;19.096;2023-08-06T15:32:31;18.50;97.10
43185;DHT22;28803;52.308;19.096;2023-08-06T15:34:58;18.40;99.90
43185;DHT22;28803;52.308;19.096;2023-08-06T15:37:26;18.40;99.90
43185;DHT22;28803;52.308;19.096;2023-08-06T15:39:53;18.60;99.90